createdAt,value
2018-06-24T00:01:56.347Z,23.70
2018-06-24T00:04:29.582Z,23.40
2018-06-24T00:07:02.657Z,23.40
2018-06-24T00:09:35.838Z,23.50
2018-06-24T00:12:09.038Z,23.50
2018-06-24T00:14:42.207Z,23.70
2018-06-24T00:17:18.516Z,23.70
2018-06-24T00:19:51.815Z,23.20
2018-06-24T00:22:24.728Z,23.00
2018-06-24T00:24:57.905Z,23.40
2018-06-24T00:27:31.008Z,23.60
2018-06-24T00:30:04.039Z,23.70
2018-06-24T00:32:37.018Z,23.70
2018-06-24T00:35:10.289Z,23.60
2018-06-24T00:37:43.549Z,23.50
2018-06-24T00:40:17.390Z,23.40
2018-06-24T00:42:50.989Z,23.50
2018-06-24T00:45:24.367Z,23.80
2018-06-24T00:47:57.568Z,24.00
2018-06-24T00:50:32.487Z,23.80
2018-06-24T00:53:05.739Z,23.00
2018-06-24T00:55:39.050Z,22.90
2018-06-24T00:58:12.213Z,23.30
2018-06-24T01:00:45.406Z,23.20
2018-06-24T01:03:18.506Z,22.90
2018-06-24T01:05:51.587Z,22.90
2018-06-24T01:08:24.797Z,23.80
2018-06-24T01:10:57.760Z,24.90
2018-06-24T01:13:30.969Z,25.30
2018-06-24T01:16:04.063Z,25.40
2018-06-24T01:18:37.762Z,25.60
2018-06-24T01:21:11.020Z,25.90
2018-06-24T01:23:44.667Z,26.00
2018-06-24T01:26:17.762Z,26.50
2018-06-24T01:28:50.865Z,26.20
2018-06-24T01:31:23.905Z,26.50
2018-06-24T01:33:56.917Z,26.70
2018-06-24T01:36:31.105Z,26.60
2018-06-24T01:39:04.850Z,27.10
2018-06-24T01:41:37.940Z,27.30
2018-06-24T01:44:11.148Z,26.50
2018-06-24T01:46:44.340Z,27.30
2018-06-24T01:49:18.224Z,27.40
2018-06-24T01:51:51.371Z,26.90
2018-06-24T01:54:24.434Z,26.20
2018-06-24T01:56:57.579Z,27.00
2018-06-24T01:59:30.841Z,26.70
2018-06-24T02:02:04.152Z,26.30
2018-06-24T02:04:37.870Z,27.20
2018-06-24T02:07:11.003Z,26.80
2018-06-24T02:09:44.572Z,27.00
2018-06-24T02:12:17.561Z,27.40
2018-06-24T02:14:51.452Z,28.10
2018-06-24T02:17:24.444Z,28.20
2018-06-24T02:19:57.616Z,27.40
2018-06-24T02:22:31.635Z,27.50
2018-06-24T02:25:04.703Z,27.00
2018-06-24T02:27:37.778Z,27.10
2018-06-24T02:30:10.908Z,26.10
2018-06-24T02:32:43.947Z,24.80
2018-06-24T02:35:17.424Z,24.10
2018-06-24T02:37:50.367Z,23.30
2018-06-24T02:40:23.501Z,22.50
2018-06-24T02:42:56.466Z,22.00
2018-06-24T02:45:29.575Z,21.50
2018-06-24T02:48:02.782Z,21.30
2018-06-24T02:50:35.802Z,21.20
2018-06-24T02:53:08.810Z,21.10
2018-06-24T02:55:41.900Z,20.90
2018-06-24T02:58:14.949Z,20.80
2018-06-24T03:00:48.166Z,20.70
2018-06-24T03:03:21.467Z,20.70
2018-06-24T03:05:54.741Z,20.50
2018-06-24T03:08:29.662Z,20.40
2018-06-24T03:11:03.504Z,20.40
2018-06-24T03:13:36.734Z,20.40
2018-06-24T03:16:10.218Z,20.30
2018-06-24T03:18:44.507Z,20.20
2018-06-24T03:21:17.611Z,20.20
2018-06-24T03:23:51.266Z,20.10
2018-06-24T03:26:25.393Z,20.00
2018-06-24T03:28:58.932Z,20.00
2018-06-24T03:31:32.081Z,19.90
2018-06-24T03:34:05.205Z,19.80
2018-06-24T03:36:38.158Z,19.60
2018-06-24T03:39:13.754Z,19.50
2018-06-24T03:41:46.820Z,19.40
2018-06-24T03:44:20.099Z,19.30
2018-06-24T03:46:53.233Z,19.30
2018-06-24T03:49:26.408Z,19.20
2018-06-24T03:52:00.640Z,19.10
2018-06-24T03:54:34.602Z,19.10
2018-06-24T03:57:13.902Z,19.00
2018-06-24T04:05:49.051Z,18.80
2018-06-24T04:08:33.055Z,18.60
2018-06-24T04:15:10.342Z,18.40
2018-06-24T04:17:44.135Z,18.30
2018-06-24T04:20:32.865Z,18.10
2018-06-24T04:23:06.590Z,18.00
2018-06-24T04:25:40.035Z,17.90
2018-06-24T04:28:14.035Z,17.90
2018-06-24T04:30:49.896Z,17.80
2018-06-24T04:33:23.627Z,17.70
2018-06-24T04:35:57.702Z,17.60
2018-06-24T04:38:31.418Z,17.60
2018-06-24T04:41:24.494Z,17.50
2018-06-24T04:43:58.424Z,17.40
2018-06-24T04:46:32.122Z,17.30
2018-06-24T04:49:05.766Z,17.20
2018-06-24T04:51:39.340Z,17.20
2018-06-24T04:54:13.137Z,17.10
2018-06-24T04:56:48.617Z,17.10
2018-06-24T04:59:23.383Z,17.00
2018-06-24T05:01:56.837Z,16.90
2018-06-24T05:04:30.164Z,16.90
2018-06-24T05:07:06.368Z,16.80
2018-06-24T05:09:41.558Z,16.80
2018-06-24T05:12:17.308Z,16.80
2018-06-24T05:14:53.270Z,16.70
2018-06-24T05:17:29.586Z,16.70
2018-06-24T05:20:12.324Z,16.70
2018-06-24T05:22:54.820Z,16.60
2018-06-24T05:25:36.216Z,16.50
2018-06-24T05:28:27.447Z,16.50
2018-06-24T05:34:00.132Z,16.40
2018-06-24T05:36:34.246Z,16.30
2018-06-24T05:39:09.148Z,16.30
2018-06-24T05:41:42.511Z,16.30
2018-06-24T05:44:16.167Z,16.20
2018-06-24T05:46:49.156Z,16.20
2018-06-24T05:49:22.865Z,16.10
2018-06-24T05:51:56.747Z,16.10
2018-06-24T05:54:30.981Z,16.10
2018-06-24T05:57:04.931Z,16.00
2018-06-24T05:59:40.878Z,16.00
2018-06-24T06:02:14.638Z,15.90
2018-06-24T06:04:48.522Z,15.90
2018-06-24T06:07:22.995Z,15.80
2018-06-24T06:09:56.692Z,15.80
2018-06-24T06:12:40.080Z,15.80
2018-06-24T06:15:14.701Z,15.70
2018-06-24T06:17:48.933Z,15.70
2018-06-24T06:20:22.964Z,15.70
2018-06-24T06:22:56.713Z,15.60
2018-06-24T06:25:31.124Z,15.60
2018-06-24T06:28:05.817Z,15.60
2018-06-24T06:30:39.073Z,15.50
2018-06-24T06:33:12.333Z,15.50
2018-06-24T06:35:46.232Z,15.50
2018-06-24T06:38:20.622Z,15.50
2018-06-24T06:40:54.049Z,15.40
2018-06-24T06:43:27.368Z,15.40
2018-06-24T06:46:00.612Z,15.40
2018-06-24T06:48:35.689Z,15.40
2018-06-24T06:51:10.851Z,15.30
2018-06-24T06:53:44.021Z,15.30
2018-06-24T06:56:17.233Z,15.30
2018-06-24T06:58:50.521Z,15.30
2018-06-24T07:01:23.945Z,15.20
2018-06-24T07:03:57.342Z,15.20
2018-06-24T07:06:30.710Z,15.20
2018-06-24T07:09:04.200Z,15.10
2018-06-24T07:11:38.046Z,15.10
2018-06-24T07:14:11.454Z,15.00
2018-06-24T07:16:44.545Z,15.00
2018-06-24T07:19:17.796Z,14.90
2018-06-24T07:21:52.589Z,14.90
2018-06-24T07:24:27.354Z,14.80
2018-06-24T07:27:00.524Z,14.80
2018-06-24T07:29:33.817Z,14.70
2018-06-24T07:32:07.224Z,14.60
2018-06-24T07:34:40.546Z,14.60
2018-06-24T07:37:14.131Z,14.60
2018-06-24T07:39:47.611Z,14.50
2018-06-24T07:42:20.705Z,14.50
2018-06-24T07:44:53.815Z,14.50
2018-06-24T15:35:29.194Z,14.70
2018-06-24T15:38:04.404Z,14.70
2018-06-24T15:40:37.829Z,15.00
2018-06-24T15:43:11.036Z,15.10
2018-06-24T15:45:44.247Z,15.20
2018-06-24T15:48:17.373Z,15.30
2018-06-24T15:50:50.467Z,15.00
2018-06-24T15:53:23.606Z,15.00
2018-06-24T15:55:57.561Z,15.20
2018-06-24T15:58:30.645Z,15.40
2018-06-24T16:01:03.815Z,15.40
2018-06-24T16:03:37.104Z,15.60
2018-06-24T16:06:10.532Z,15.50
2018-06-24T16:08:43.673Z,15.40
2018-06-24T16:11:16.759Z,15.70
2018-06-24T16:13:50.736Z,15.90
2018-06-24T16:16:23.917Z,16.10
2018-06-24T16:18:57.108Z,16.30
2018-06-24T16:21:30.331Z,16.10
2018-06-24T16:24:03.692Z,16.10
2018-06-24T16:26:36.912Z,16.30
2018-06-24T16:29:10.086Z,16.10
2018-06-24T16:31:43.124Z,15.90
2018-06-24T16:34:16.374Z,16.00
2018-06-24T16:36:49.533Z,16.40
2018-06-24T16:39:22.562Z,16.60
2018-06-24T16:41:55.873Z,16.50
2018-06-24T16:44:29.020Z,16.50
2018-06-24T16:47:02.079Z,16.50
2018-06-24T16:49:35.277Z,16.70
2018-06-24T16:52:08.522Z,16.70
2018-06-24T16:54:43.537Z,16.70
2018-06-24T16:57:17.546Z,16.70
2018-06-24T16:59:52.602Z,16.90
2018-06-24T17:02:26.899Z,16.80
2018-06-24T17:05:00.904Z,17.00
2018-06-24T17:07:34.050Z,17.30
2018-06-24T17:10:07.289Z,17.50
2018-06-24T17:12:40.534Z,17.60
2018-06-24T17:15:13.705Z,17.60
2018-06-24T17:17:47.027Z,17.70
2018-06-24T17:20:21.268Z,17.80
2018-06-24T17:22:54.662Z,17.80
2018-06-24T17:25:28.457Z,17.70
2018-06-24T17:28:01.740Z,17.80
2018-06-24T17:30:35.123Z,17.50
2018-06-24T17:33:08.162Z,17.60
2018-06-24T17:35:42.093Z,17.70
2018-06-24T17:38:16.734Z,17.70
2018-06-24T17:40:50.584Z,17.80
2018-06-24T17:43:23.954Z,18.00
2018-06-24T17:45:57.551Z,18.20
2018-06-24T17:48:30.845Z,18.50
2018-06-24T17:51:05.050Z,18.40
2018-06-24T17:53:39.365Z,18.30
2018-06-24T17:56:12.602Z,18.60
2018-06-24T17:58:46.083Z,18.90
2018-06-24T18:01:19.297Z,19.00
2018-06-24T18:03:59.208Z,19.10
2018-06-24T18:09:23.265Z,19.30
2018-06-24T18:12:06.652Z,18.60
2018-06-24T18:14:48.329Z,18.80
2018-06-24T18:17:31.776Z,19.10
2018-06-24T18:20:14.926Z,19.10
2018-06-24T18:22:57.204Z,19.10
2018-06-24T18:25:36.848Z,19.30
2018-06-24T18:28:21.542Z,19.30
2018-06-24T18:31:06.530Z,19.50
2018-06-24T18:33:41.021Z,19.30
2018-06-24T18:36:14.383Z,19.50
2018-06-24T18:38:47.783Z,19.50
2018-06-24T18:41:21.355Z,19.30
2018-06-24T18:43:54.879Z,19.50
2018-06-24T18:46:28.363Z,19.70
2018-06-24T18:49:03.262Z,19.90
2018-06-24T18:51:36.748Z,20.10
2018-06-24T18:54:16.099Z,20.20
2018-06-24T19:03:24.210Z,19.90
2018-06-24T19:05:59.733Z,19.90
2018-06-24T19:08:36.739Z,20.00
2018-06-24T19:11:13.363Z,20.30
2018-06-24T19:13:49.104Z,20.50
2018-06-24T19:16:23.243Z,20.60
2018-06-24T19:18:58.117Z,20.80
2018-06-24T19:21:33.368Z,20.80
2018-06-24T19:24:07.616Z,20.80
2018-06-24T19:26:41.520Z,20.70
2018-06-24T19:29:14.831Z,20.70
2018-06-24T19:31:48.716Z,20.90
2018-06-24T19:34:22.014Z,20.80
2018-06-24T19:36:55.610Z,20.60
2018-06-24T19:39:29.038Z,20.80
2018-06-24T19:42:02.450Z,21.10
2018-06-24T19:44:35.747Z,21.10
2018-06-24T19:47:09.200Z,21.10
2018-06-24T19:49:42.808Z,21.20
2018-06-24T19:52:17.675Z,21.00
2018-06-24T19:54:51.023Z,20.90
2018-06-24T19:57:24.425Z,20.80
2018-06-24T19:59:57.585Z,21.20
2018-06-24T20:02:31.784Z,21.60
2018-06-24T20:05:05.907Z,21.90
2018-06-24T20:07:39.490Z,22.10
2018-06-24T20:10:12.911Z,22.30
2018-06-24T20:12:46.255Z,22.40
2018-06-24T20:15:19.444Z,22.60
2018-06-24T20:17:52.683Z,22.50
2018-06-24T20:20:25.836Z,22.50
2018-06-24T20:22:59.230Z,22.10
2018-06-24T20:25:32.364Z,22.10
2018-06-24T20:28:05.471Z,21.90
2018-06-24T20:30:38.688Z,22.00
2018-06-24T20:33:14.198Z,22.30
2018-06-24T20:35:55.481Z,22.30
2018-06-24T20:38:28.732Z,22.50
2018-06-24T20:41:02.201Z,22.30
2018-06-24T20:43:35.392Z,22.50
2018-06-24T20:46:08.525Z,22.80
2018-06-24T20:48:41.758Z,23.10
2018-06-24T20:51:15.018Z,23.00
2018-06-24T20:53:48.519Z,23.30
2018-06-24T20:56:21.886Z,23.40
2018-06-24T20:59:00.075Z,23.70
2018-06-24T21:01:33.392Z,23.80
2018-06-24T21:04:07.359Z,23.50
2018-06-24T21:06:40.564Z,23.50
2018-06-24T21:09:14.198Z,23.50
2018-06-24T21:11:47.434Z,23.80
2018-06-24T21:14:23.574Z,24.20
2018-06-24T21:17:04.414Z,24.50
2018-06-24T21:19:37.652Z,24.40
2018-06-24T21:22:10.691Z,24.30
2018-06-24T21:24:43.819Z,24.20
2018-06-24T21:27:16.925Z,24.30
2018-06-24T21:29:50.320Z,24.40
2018-06-24T21:32:23.716Z,24.50
2018-06-24T21:34:56.839Z,24.80
2018-06-24T21:37:30.355Z,24.90
2018-06-24T21:40:03.596Z,25.00
2018-06-24T21:42:36.715Z,25.30
2018-06-24T21:45:10.285Z,25.70
2018-06-24T21:47:43.455Z,25.80
2018-06-24T21:50:17.109Z,26.00
2018-06-24T21:52:50.454Z,26.00
2018-06-24T21:55:23.907Z,25.90
2018-06-24T21:57:56.970Z,26.10
2018-06-24T22:00:30.390Z,25.90
2018-06-24T22:03:03.665Z,25.80
2018-06-24T22:05:36.745Z,25.50
2018-06-24T22:08:10.007Z,25.40
2018-06-24T22:10:43.033Z,25.70
2018-06-24T22:13:16.157Z,25.80
2018-06-24T22:15:49.535Z,25.80
2018-06-24T22:18:22.763Z,25.80
2018-06-24T22:20:55.851Z,25.90
2018-06-24T22:23:29.124Z,25.60
2018-06-24T22:26:02.444Z,25.50
2018-06-24T22:28:35.635Z,25.40
2018-06-24T22:31:08.845Z,24.90
2018-06-24T22:33:42.679Z,25.20
2018-06-24T22:38:53.409Z,25.60
2018-06-24T22:41:26.953Z,25.60
2018-06-24T22:44:00.112Z,25.60
2018-06-24T22:46:33.407Z,25.90
2018-06-24T22:49:06.646Z,26.40
2018-06-24T22:51:39.718Z,26.50
2018-06-24T22:54:12.737Z,26.20
2018-06-24T22:56:46.018Z,26.00
2018-06-24T22:59:27.928Z,25.70
2018-06-24T23:02:00.934Z,25.80
2018-06-24T23:04:34.002Z,26.00
2018-06-24T23:07:07.156Z,26.40
2018-06-24T23:09:40.323Z,26.50
2018-06-24T23:12:13.381Z,26.70
2018-06-24T23:18:04.108Z,26.80
2018-06-24T23:20:37.655Z,26.90
2018-06-24T23:24:05.724Z,27.00
2018-06-24T23:26:41.083Z,27.00
2018-06-24T23:41:09.018Z,27.20
2018-06-24T23:43:45.785Z,27.50
2018-06-24T23:46:21.131Z,27.40
2018-06-24T23:48:55.048Z,27.60
2018-06-24T23:51:29.227Z,27.70
2018-06-24T23:54:02.419Z,27.80
2018-06-24T23:56:35.573Z,27.90
2018-06-24T23:59:08.588Z,27.90
